sensor_id;sensor_type;location;lat;lon;timestamp;P1;durP1;ratioP1;P2;durP2;ratioP2
13234;SDS011;6683;48.506;9.050;2023-07-08T00:01:49;5.87;;;4.50;;
13234;SDS011;6683;48.506;9.050;2023-07-08T00:04:51;6.23;;;4.47;;
13234;SDS011;6683;48.506;9.050;2023-07-08T00:07:54;5.23;;;4.50;;
13234;SDS011;6683;48.506;9.050;2023-07-08T00:10:56;6.30;;;4.90;;
13234;SDS011;6683;48.506;9.050;2023-07-08T00:13:59;7.17;;;4.33;;
13234;SDS011;6683;48.506;9.050;2023-07-08T00:17:01;10.10;;;4.40;;
13234;SDS011;6683;48.506;9.050;2023-07-08T00:20:09;7.60;;;4.83;;
13234;SDS011;6683;48.506;9.050;2023-07-08T00:23:25;5.67;;;4.50;;
13234;SDS011;6683;48.506;9.050;2023-07-08T00:26:28;6.07;;;4.53;;
13234;SDS011;6683;48.506;9.050;2023-07-08T00:29:33;4.80;;;4.13;;
13234;SDS011;6683;48.506;9.050;2023-07-08T00:32:35;6.10;;;4.17;;
13234;SDS011;6683;48.506;9.050;2023-07-08T00:35:42;8.10;;;5.40;;
13234;SDS011;6683;48.506;9.050;2023-07-08T00:38:46;6.97;;;4.50;;
13234;SDS011;6683;48.506;9.050;2023-07-08T00:41:48;4.80;;;4.00;;
13234;SDS011;6683;48.506;9.050;2023-07-08T00:44:53;5.30;;;4.57;;
13234;SDS011;6683;48.506;9.050;2023-07-08T00:47:56;5.83;;;4.70;;
13234;SDS011;6683;48.506;9.050;2023-07-08T00:51:19;5.57;;;4.60;;
13234;SDS011;6683;48.506;9.050;2023-07-08T00:54:23;4.70;;;4.17;;
13234;SDS011;6683;48.506;9.050;2023-07-08T00:57:26;4.73;;;3.60;;
13234;SDS011;6683;48.506;9.050;2023-07-08T01:00:32;5.40;;;4.40;;
13234;SDS011;6683;48.506;9.050;2023-07-08T01:03:36;5.67;;;4.20;;
13234;SDS011;6683;48.506;9.050;2023-07-08T01:06:50;7.27;;;4.73;;
13234;SDS011;6683;48.506;9.050;2023-07-08T01:10:00;6.90;;;4.47;;
13234;SDS011;6683;48.506;9.050;2023-07-08T01:13:05;8.97;;;4.53;;
13234;SDS011;6683;48.506;9.050;2023-07-08T01:16:12;5.70;;;4.17;;
13234;SDS011;6683;48.506;9.050;2023-07-08T01:19:16;6.70;;;4.90;;
13234;SDS011;6683;48.506;9.050;2023-07-08T01:22:33;7.00;;;4.67;;
13234;SDS011;6683;48.506;9.050;2023-07-08T01:25:36;6.57;;;4.53;;
13234;SDS011;6683;48.506;9.050;2023-07-08T01:28:39;5.93;;;4.60;;
13234;SDS011;6683;48.506;9.050;2023-07-08T01:31:41;7.30;;;4.87;;
13234;SDS011;6683;48.506;9.050;2023-07-08T01:34:48;7.03;;;4.67;;
13234;SDS011;6683;48.506;9.050;2023-07-08T01:38:03;5.10;;;4.03;;
13234;SDS011;6683;48.506;9.050;2023-07-08T01:41:10;5.33;;;4.37;;
13234;SDS011;6683;48.506;9.050;2023-07-08T01:44:27;6.00;;;4.57;;
13234;SDS011;6683;48.506;9.050;2023-07-08T01:47:31;6.63;;;4.10;;
13234;SDS011;6683;48.506;9.050;2023-07-08T01:50:34;5.23;;;3.87;;
13234;SDS011;6683;48.506;9.050;2023-07-08T01:53:43;5.50;;;4.03;;
13234;SDS011;6683;48.506;9.050;2023-07-08T01:56:46;6.33;;;4.60;;
13234;SDS011;6683;48.506;9.050;2023-07-08T01:59:51;4.97;;;4.00;;
13234;SDS011;6683;48.506;9.050;2023-07-08T02:02:54;6.23;;;4.43;;
13234;SDS011;6683;48.506;9.050;2023-07-08T02:05:56;5.80;;;4.47;;
13234;SDS011;6683;48.506;9.050;2023-07-08T02:08:59;6.13;;;4.37;;
13234;SDS011;6683;48.506;9.050;2023-07-08T02:12:03;4.93;;;3.83;;
13234;SDS011;6683;48.506;9.050;2023-07-08T02:15:07;5.17;;;4.07;;
13234;SDS011;6683;48.506;9.050;2023-07-08T02:18:10;5.00;;;4.17;;
13234;SDS011;6683;48.506;9.050;2023-07-08T02:21:13;5.50;;;4.47;;
13234;SDS011;6683;48.506;9.050;2023-07-08T02:24:19;5.57;;;4.60;;
13234;SDS011;6683;48.506;9.050;2023-07-08T02:27:23;6.33;;;4.50;;
13234;SDS011;6683;48.506;9.050;2023-07-08T02:30:25;5.60;;;4.47;;
13234;SDS011;6683;48.506;9.050;2023-07-08T02:33:28;5.63;;;4.57;;
13234;SDS011;6683;48.506;9.050;2023-07-08T02:36:33;6.00;;;4.50;;
13234;SDS011;6683;48.506;9.050;2023-07-08T02:39:36;11.37;;;4.83;;
13234;SDS011;6683;48.506;9.050;2023-07-08T02:42:39;8.53;;;4.77;;
13234;SDS011;6683;48.506;9.050;2023-07-08T02:45:41;6.67;;;4.07;;
13234;SDS011;6683;48.506;9.050;2023-07-08T02:48:43;5.00;;;4.27;;
13234;SDS011;6683;48.506;9.050;2023-07-08T02:51:46;6.13;;;4.60;;
13234;SDS011;6683;48.506;9.050;2023-07-08T02:54:49;4.90;;;3.93;;
13234;SDS011;6683;48.506;9.050;2023-07-08T02:57:51;6.33;;;4.43;;
13234;SDS011;6683;48.506;9.050;2023-07-08T03:00:54;4.80;;;3.90;;
13234;SDS011;6683;48.506;9.050;2023-07-08T03:03:59;5.10;;;4.33;;
13234;SDS011;6683;48.506;9.050;2023-07-08T03:07:01;5.03;;;4.33;;
13234;SDS011;6683;48.506;9.050;2023-07-08T03:10:05;5.23;;;4.23;;
13234;SDS011;6683;48.506;9.050;2023-07-08T03:13:09;6.03;;;4.57;;
13234;SDS011;6683;48.506;9.050;2023-07-08T03:16:11;5.83;;;4.10;;
13234;SDS011;6683;48.506;9.050;2023-07-08T03:19:13;5.73;;;4.33;;
13234;SDS011;6683;48.506;9.050;2023-07-08T03:22:16;6.10;;;4.67;;
13234;SDS011;6683;48.506;9.050;2023-07-08T03:25:20;6.97;;;4.23;;
13234;SDS011;6683;48.506;9.050;2023-07-08T03:28:22;5.37;;;4.03;;
13234;SDS011;6683;48.506;9.050;2023-07-08T03:31:24;5.73;;;4.50;;
13234;SDS011;6683;48.506;9.050;2023-07-08T03:34:27;6.83;;;4.43;;
13234;SDS011;6683;48.506;9.050;2023-07-08T03:37:29;6.80;;;4.33;;
13234;SDS011;6683;48.506;9.050;2023-07-08T03:40:32;6.20;;;4.70;;
13234;SDS011;6683;48.506;9.050;2023-07-08T03:43:35;5.33;;;4.10;;
13234;SDS011;6683;48.506;9.050;2023-07-08T03:46:37;6.73;;;4.73;;
13234;SDS011;6683;48.506;9.050;2023-07-08T03:49:40;5.73;;;4.53;;
13234;SDS011;6683;48.506;9.050;2023-07-08T03:52:42;6.00;;;4.33;;
13234;SDS011;6683;48.506;9.050;2023-07-08T03:55:47;5.57;;;4.50;;
13234;SDS011;6683;48.506;9.050;2023-07-08T03:58:49;5.40;;;4.00;;
13234;SDS011;6683;48.506;9.050;2023-07-08T04:01:51;5.17;;;4.33;;
13234;SDS011;6683;48.506;9.050;2023-07-08T04:04:53;6.17;;;4.33;;
13234;SDS011;6683;48.506;9.050;2023-07-08T04:07:56;6.43;;;4.57;;
13234;SDS011;6683;48.506;9.050;2023-07-08T04:10:59;4.40;;;4.00;;
13234;SDS011;6683;48.506;9.050;2023-07-08T04:14:02;6.20;;;4.90;;
13234;SDS011;6683;48.506;9.050;2023-07-08T04:17:04;6.07;;;4.60;;
13234;SDS011;6683;48.506;9.050;2023-07-08T04:20:08;5.20;;;4.30;;
13234;SDS011;6683;48.506;9.050;2023-07-08T04:23:11;6.10;;;4.30;;
13234;SDS011;6683;48.506;9.050;2023-07-08T04:26:15;5.03;;;4.27;;
13234;SDS011;6683;48.506;9.050;2023-07-08T04:29:19;5.10;;;4.40;;
13234;SDS011;6683;48.506;9.050;2023-07-08T04:32:23;6.33;;;5.17;;
13234;SDS011;6683;48.506;9.050;2023-07-08T04:35:25;8.63;;;4.97;;
13234;SDS011;6683;48.506;9.050;2023-07-08T04:38:28;6.63;;;4.63;;
13234;SDS011;6683;48.506;9.050;2023-07-08T04:41:33;4.77;;;4.03;;
13234;SDS011;6683;48.506;9.050;2023-07-08T04:44:40;4.93;;;4.17;;
13234;SDS011;6683;48.506;9.050;2023-07-08T04:47:42;6.13;;;4.60;;
13234;SDS011;6683;48.506;9.050;2023-07-08T04:50:53;5.93;;;4.63;;
13234;SDS011;6683;48.506;9.050;2023-07-08T04:53:57;6.50;;;4.63;;
13234;SDS011;6683;48.506;9.050;2023-07-08T04:57:01;5.93;;;4.70;;
13234;SDS011;6683;48.506;9.050;2023-07-08T05:00:04;7.37;;;4.40;;
13234;SDS011;6683;48.506;9.050;2023-07-08T05:03:09;5.53;;;4.30;;
13234;SDS011;6683;48.506;9.050;2023-07-08T05:06:11;5.83;;;4.43;;
13234;SDS011;6683;48.506;9.050;2023-07-08T05:09:13;7.27;;;4.60;;
13234;SDS011;6683;48.506;9.050;2023-07-08T05:12:18;5.67;;;4.63;;
13234;SDS011;6683;48.506;9.050;2023-07-08T05:15:20;7.73;;;4.40;;
13234;SDS011;6683;48.506;9.050;2023-07-08T05:18:22;6.67;;;4.23;;
13234;SDS011;6683;48.506;9.050;2023-07-08T05:21:25;5.47;;;4.43;;
13234;SDS011;6683;48.506;9.050;2023-07-08T05:24:29;5.67;;;4.43;;
13234;SDS011;6683;48.506;9.050;2023-07-08T05:27:33;5.53;;;4.67;;
13234;SDS011;6683;48.506;9.050;2023-07-08T05:30:35;6.47;;;4.13;;
13234;SDS011;6683;48.506;9.050;2023-07-08T05:33:37;5.77;;;4.53;;
13234;SDS011;6683;48.506;9.050;2023-07-08T05:36:39;8.93;;;4.70;;
13234;SDS011;6683;48.506;9.050;2023-07-08T05:39:41;5.37;;;3.90;;
13234;SDS011;6683;48.506;9.050;2023-07-08T05:42:45;5.77;;;4.67;;
13234;SDS011;6683;48.506;9.050;2023-07-08T05:45:47;5.07;;;4.03;;
13234;SDS011;6683;48.506;9.050;2023-07-08T05:48:50;5.67;;;4.67;;
13234;SDS011;6683;48.506;9.050;2023-07-08T05:51:52;4.93;;;4.37;;
13234;SDS011;6683;48.506;9.050;2023-07-08T05:54:55;6.93;;;4.87;;
13234;SDS011;6683;48.506;9.050;2023-07-08T05:57:58;5.30;;;4.57;;
13234;SDS011;6683;48.506;9.050;2023-07-08T06:01:00;6.43;;;5.00;;
13234;SDS011;6683;48.506;9.050;2023-07-08T06:04:03;5.27;;;4.70;;
13234;SDS011;6683;48.506;9.050;2023-07-08T06:07:05;4.73;;;4.23;;
13234;SDS011;6683;48.506;9.050;2023-07-08T06:10:07;7.37;;;4.70;;
13234;SDS011;6683;48.506;9.050;2023-07-08T06:13:12;8.13;;;4.70;;
13234;SDS011;6683;48.506;9.050;2023-07-08T06:16:14;6.13;;;5.00;;
13234;SDS011;6683;48.506;9.050;2023-07-08T06:19:16;6.07;;;4.77;;
13234;SDS011;6683;48.506;9.050;2023-07-08T06:22:19;6.60;;;5.00;;
13234;SDS011;6683;48.506;9.050;2023-07-08T06:25:21;7.30;;;4.67;;
13234;SDS011;6683;48.506;9.050;2023-07-08T06:28:24;6.37;;;4.37;;
13234;SDS011;6683;48.506;9.050;2023-07-08T06:31:27;5.00;;;4.50;;
13234;SDS011;6683;48.506;9.050;2023-07-08T06:34:30;5.50;;;4.67;;
13234;SDS011;6683;48.506;9.050;2023-07-08T06:37:32;5.37;;;4.73;;
13234;SDS011;6683;48.506;9.050;2023-07-08T06:40:34;5.20;;;4.50;;
13234;SDS011;6683;48.506;9.050;2023-07-08T06:43:38;5.77;;;4.27;;
13234;SDS011;6683;48.506;9.050;2023-07-08T06:46:40;6.13;;;4.23;;
13234;SDS011;6683;48.506;9.050;2023-07-08T06:49:42;5.40;;;4.50;;
13234;SDS011;6683;48.506;9.050;2023-07-08T06:52:44;6.03;;;5.30;;
13234;SDS011;6683;48.506;9.050;2023-07-08T06:55:46;8.00;;;5.17;;
13234;SDS011;6683;48.506;9.050;2023-07-08T06:58:52;5.80;;;4.20;;
13234;SDS011;6683;48.506;9.050;2023-07-08T07:01:54;6.13;;;4.37;;
13234;SDS011;6683;48.506;9.050;2023-07-08T07:04:57;5.43;;;4.23;;
13234;SDS011;6683;48.506;9.050;2023-07-08T07:07:59;6.27;;;4.53;;
13234;SDS011;6683;48.506;9.050;2023-07-08T07:11:01;7.28;;;5.20;;
13234;SDS011;6683;48.506;9.050;2023-07-08T07:14:04;6.20;;;4.90;;
13234;SDS011;6683;48.506;9.050;2023-07-08T07:17:06;6.83;;;5.00;;
13234;SDS011;6683;48.506;9.050;2023-07-08T07:20:09;7.13;;;4.88;;
13234;SDS011;6683;48.506;9.050;2023-07-08T07:23:12;6.30;;;4.72;;
13234;SDS011;6683;48.506;9.050;2023-07-08T07:26:15;7.30;;;5.15;;
13234;SDS011;6683;48.506;9.050;2023-07-08T07:29:21;6.82;;;4.60;;
13234;SDS011;6683;48.506;9.050;2023-07-08T07:32:25;5.55;;;4.43;;
13234;SDS011;6683;48.506;9.050;2023-07-08T07:35:29;5.80;;;4.38;;
13234;SDS011;6683;48.506;9.050;2023-07-08T07:38:32;6.47;;;4.88;;
13234;SDS011;6683;48.506;9.050;2023-07-08T07:41:35;5.63;;;4.53;;
13234;SDS011;6683;48.506;9.050;2023-07-08T07:44:39;6.38;;;5.10;;
13234;SDS011;6683;48.506;9.050;2023-07-08T07:47:41;6.30;;;3.60;;
13234;SDS011;6683;48.506;9.050;2023-07-08T07:50:44;5.05;;;3.92;;
13234;SDS011;6683;48.506;9.050;2023-07-08T07:53:47;6.47;;;4.35;;
13234;SDS011;6683;48.506;9.050;2023-07-08T07:56:49;6.28;;;4.55;;
13234;SDS011;6683;48.506;9.050;2023-07-08T07:59:54;5.57;;;3.92;;
13234;SDS011;6683;48.506;9.050;2023-07-08T08:02:56;5.28;;;4.15;;
13234;SDS011;6683;48.506;9.050;2023-07-08T08:05:58;6.13;;;4.32;;
13234;SDS011;6683;48.506;9.050;2023-07-08T08:09:00;4.32;;;3.70;;
13234;SDS011;6683;48.506;9.050;2023-07-08T08:12:04;4.57;;;3.50;;
13234;SDS011;6683;48.506;9.050;2023-07-08T08:15:11;8.40;;;4.22;;
13234;SDS011;6683;48.506;9.050;2023-07-08T08:18:13;5.63;;;3.60;;
13234;SDS011;6683;48.506;9.050;2023-07-08T08:21:15;4.57;;;3.60;;
13234;SDS011;6683;48.506;9.050;2023-07-08T08:24:17;4.00;;;3.60;;
13234;SDS011;6683;48.506;9.050;2023-07-08T08:27:20;5.32;;;3.50;;
13234;SDS011;6683;48.506;9.050;2023-07-08T08:30:23;4.03;;;3.42;;
13234;SDS011;6683;48.506;9.050;2023-07-08T08:33:26;5.80;;;4.35;;
13234;SDS011;6683;48.506;9.050;2023-07-08T08:36:28;4.20;;;3.75;;
13234;SDS011;6683;48.506;9.050;2023-07-08T08:39:30;5.13;;;3.97;;
13234;SDS011;6683;48.506;9.050;2023-07-08T08:42:34;9.00;;;4.95;;
13234;SDS011;6683;48.506;9.050;2023-07-08T08:45:49;7.05;;;4.20;;
13234;SDS011;6683;48.506;9.050;2023-07-08T08:48:59;3.83;;;3.35;;
13234;SDS011;6683;48.506;9.050;2023-07-08T08:52:08;5.00;;;3.90;;
13234;SDS011;6683;48.506;9.050;2023-07-08T08:55:11;4.93;;;3.90;;
13234;SDS011;6683;48.506;9.050;2023-07-08T08:58:17;4.70;;;3.58;;
13234;SDS011;6683;48.506;9.050;2023-07-08T09:01:36;4.68;;;3.38;;
13234;SDS011;6683;48.506;9.050;2023-07-08T09:04:39;5.88;;;3.78;;
13234;SDS011;6683;48.506;9.050;2023-07-08T09:07:43;6.25;;;3.95;;
13234;SDS011;6683;48.506;9.050;2023-07-08T09:11:07;4.53;;;3.60;;
13234;SDS011;6683;48.506;9.050;2023-07-08T09:14:34;4.88;;;3.50;;
13234;SDS011;6683;48.506;9.050;2023-07-08T09:17:40;5.57;;;3.35;;
13234;SDS011;6683;48.506;9.050;2023-07-08T09:20:42;4.72;;;3.42;;
13234;SDS011;6683;48.506;9.050;2023-07-08T09:23:44;3.53;;;2.92;;
13234;SDS011;6683;48.506;9.050;2023-07-08T09:26:51;3.30;;;2.90;;
13234;SDS011;6683;48.506;9.050;2023-07-08T09:29:56;3.60;;;2.97;;
13234;SDS011;6683;48.506;9.050;2023-07-08T09:33:03;3.95;;;3.05;;
13234;SDS011;6683;48.506;9.050;2023-07-08T09:36:15;4.05;;;2.80;;
13234;SDS011;6683;48.506;9.050;2023-07-08T09:39:23;6.18;;;2.90;;
13234;SDS011;6683;48.506;9.050;2023-07-08T09:42:27;4.30;;;2.80;;
13234;SDS011;6683;48.506;9.050;2023-07-08T09:45:40;3.80;;;2.90;;
13234;SDS011;6683;48.506;9.050;2023-07-08T09:48:47;3.88;;;2.83;;
13234;SDS011;6683;48.506;9.050;2023-07-08T09:51:49;3.15;;;2.60;;
13234;SDS011;6683;48.506;9.050;2023-07-08T09:54:53;3.05;;;2.65;;
13234;SDS011;6683;48.506;9.050;2023-07-08T09:57:55;4.32;;;2.90;;
13234;SDS011;6683;48.506;9.050;2023-07-08T10:01:05;3.35;;;2.60;;
13234;SDS011;6683;48.506;9.050;2023-07-08T10:04:14;3.63;;;2.60;;
13234;SDS011;6683;48.506;9.050;2023-07-08T10:07:20;3.85;;;2.50;;
13234;SDS011;6683;48.506;9.050;2023-07-08T10:10:26;3.45;;;2.63;;
13234;SDS011;6683;48.506;9.050;2023-07-08T10:13:34;3.35;;;2.75;;
13234;SDS011;6683;48.506;9.050;2023-07-08T10:16:41;3.05;;;2.60;;
13234;SDS011;6683;48.506;9.050;2023-07-08T10:19:45;3.20;;;2.78;;
13234;SDS011;6683;48.506;9.050;2023-07-08T10:22:51;3.28;;;2.50;;
13234;SDS011;6683;48.506;9.050;2023-07-08T10:26:08;4.65;;;3.25;;
13234;SDS011;6683;48.506;9.050;2023-07-08T10:29:22;3.05;;;2.70;;
13234;SDS011;6683;48.506;9.050;2023-07-08T10:32:37;2.40;;;2.20;;
13234;SDS011;6683;48.506;9.050;2023-07-08T10:35:58;2.75;;;2.28;;
13234;SDS011;6683;48.506;9.050;2023-07-08T10:39:19;4.30;;;2.28;;
13234;SDS011;6683;48.506;9.050;2023-07-08T10:42:53;2.60;;;2.40;;
13234;SDS011;6683;48.506;9.050;2023-07-08T10:46:26;2.90;;;2.25;;
13234;SDS011;6683;48.506;9.050;2023-07-08T10:49:47;2.53;;;2.03;;
13234;SDS011;6683;48.506;9.050;2023-07-08T10:53:17;2.63;;;2.30;;
13234;SDS011;6683;48.506;9.050;2023-07-08T10:56:40;2.95;;;2.60;;
13234;SDS011;6683;48.506;9.050;2023-07-08T10:59:53;3.17;;;2.70;;
13234;SDS011;6683;48.506;9.050;2023-07-08T11:03:13;2.42;;;2.22;;
13234;SDS011;6683;48.506;9.050;2023-07-08T11:06:40;3.22;;;2.33;;
13234;SDS011;6683;48.506;9.050;2023-07-08T11:09:53;2.47;;;2.22;;
13234;SDS011;6683;48.506;9.050;2023-07-08T11:13:00;4.55;;;2.30;;
13234;SDS011;6683;48.506;9.050;2023-07-08T11:16:08;2.30;;;2.00;;
13234;SDS011;6683;48.506;9.050;2023-07-08T11:19:17;3.22;;;1.83;;
13234;SDS011;6683;48.506;9.050;2023-07-08T11:22:25;2.10;;;1.98;;
13234;SDS011;6683;48.506;9.050;2023-07-08T11:25:32;2.60;;;2.40;;
13234;SDS011;6683;48.506;9.050;2023-07-08T11:28:35;2.10;;;1.90;;
13234;SDS011;6683;48.506;9.050;2023-07-08T11:31:38;2.42;;;1.90;;
13234;SDS011;6683;48.506;9.050;2023-07-08T11:34:40;2.30;;;2.10;;
13234;SDS011;6683;48.506;9.050;2023-07-08T11:37:44;2.25;;;2.05;;
13234;SDS011;6683;48.506;9.050;2023-07-08T11:40:52;2.53;;;1.90;;
13234;SDS011;6683;48.506;9.050;2023-07-08T11:43:57;2.08;;;1.90;;
13234;SDS011;6683;48.506;9.050;2023-07-08T11:47:10;2.20;;;2.00;;
13234;SDS011;6683;48.506;9.050;2023-07-08T11:50:21;2.10;;;1.90;;
13234;SDS011;6683;48.506;9.050;2023-07-08T11:53:36;2.83;;;1.92;;
13234;SDS011;6683;48.506;9.050;2023-07-08T11:56:57;1.70;;;1.60;;
13234;SDS011;6683;48.506;9.050;2023-07-08T12:00:15;1.85;;;1.75;;
13234;SDS011;6683;48.506;9.050;2023-07-08T12:03:21;1.88;;;1.70;;
13234;SDS011;6683;48.506;9.050;2023-07-08T12:06:40;2.90;;;1.80;;
13234;SDS011;6683;48.506;9.050;2023-07-08T12:09:56;1.67;;;1.58;;
13234;SDS011;6683;48.506;9.050;2023-07-08T12:13:02;1.55;;;1.45;;
13234;SDS011;6683;48.506;9.050;2023-07-08T12:16:11;1.85;;;1.67;;
13234;SDS011;6683;48.506;9.050;2023-07-08T12:19:16;1.85;;;1.50;;
13234;SDS011;6683;48.506;9.050;2023-07-08T12:22:21;2.70;;;1.80;;
13234;SDS011;6683;48.506;9.050;2023-07-08T12:25:25;1.67;;;1.58;;
13234;SDS011;6683;48.506;9.050;2023-07-08T12:28:36;3.45;;;2.40;;
13234;SDS011;6683;48.506;9.050;2023-07-08T12:31:38;3.08;;;2.78;;
13234;SDS011;6683;48.506;9.050;2023-07-08T12:34:42;2.15;;;1.98;;
13234;SDS011;6683;48.506;9.050;2023-07-08T12:37:45;2.72;;;2.10;;
13234;SDS011;6683;48.506;9.050;2023-07-08T12:40:47;1.65;;;1.55;;
13234;SDS011;6683;48.506;9.050;2023-07-08T12:43:52;1.48;;;1.38;;
13234;SDS011;6683;48.506;9.050;2023-07-08T12:46:55;1.70;;;1.60;;
13234;SDS011;6683;48.506;9.050;2023-07-08T12:49:57;1.92;;;1.80;;
13234;SDS011;6683;48.506;9.050;2023-07-08T12:52:59;2.10;;;1.95;;
13234;SDS011;6683;48.506;9.050;2023-07-08T12:56:04;3.65;;;1.80;;
13234;SDS011;6683;48.506;9.050;2023-07-08T12:59:08;1.92;;;1.40;;
13234;SDS011;6683;48.506;9.050;2023-07-08T13:02:15;1.27;;;1.17;;
13234;SDS011;6683;48.506;9.050;2023-07-08T13:05:20;1.70;;;1.60;;
13234;SDS011;6683;48.506;9.050;2023-07-08T13:08:24;1.63;;;1.52;;
13234;SDS011;6683;48.506;9.050;2023-07-08T13:11:31;1.90;;;1.73;;
13234;SDS011;6683;48.506;9.050;2023-07-08T13:14:34;1.65;;;1.55;;
13234;SDS011;6683;48.506;9.050;2023-07-08T13:17:36;1.50;;;1.40;;
13234;SDS011;6683;48.506;9.050;2023-07-08T13:20:40;2.03;;;1.50;;
13234;SDS011;6683;48.506;9.050;2023-07-08T13:23:44;1.63;;;1.52;;
13234;SDS011;6683;48.506;9.050;2023-07-08T13:26:48;1.73;;;1.40;;
13234;SDS011;6683;48.506;9.050;2023-07-08T13:29:52;1.98;;;1.60;;
13234;SDS011;6683;48.506;9.050;2023-07-08T13:32:56;2.08;;;1.92;;
13234;SDS011;6683;48.506;9.050;2023-07-08T13:36:01;2.00;;;1.80;;
13234;SDS011;6683;48.506;9.050;2023-07-08T13:39:08;1.95;;;1.75;;
13234;SDS011;6683;48.506;9.050;2023-07-08T13:42:17;2.53;;;1.73;;
13234;SDS011;6683;48.506;9.050;2023-07-08T13:45:23;1.80;;;1.70;;
13234;SDS011;6683;48.506;9.050;2023-07-08T13:48:28;4.65;;;1.85;;
13234;SDS011;6683;48.506;9.050;2023-07-08T13:51:34;2.17;;;1.80;;
13234;SDS011;6683;48.506;9.050;2023-07-08T13:54:38;3.08;;;2.10;;
13234;SDS011;6683;48.506;9.050;2023-07-08T13:57:45;1.65;;;1.55;;
13234;SDS011;6683;48.506;9.050;2023-07-08T14:00:57;2.53;;;1.60;;
13234;SDS011;6683;48.506;9.050;2023-07-08T14:04:00;2.10;;;1.90;;
13234;SDS011;6683;48.506;9.050;2023-07-08T14:07:03;2.05;;;1.75;;
13234;SDS011;6683;48.506;9.050;2023-07-08T14:10:19;2.17;;;1.98;;
13234;SDS011;6683;48.506;9.050;2023-07-08T14:13:22;1.90;;;1.70;;
13234;SDS011;6683;48.506;9.050;2023-07-08T14:16:27;2.05;;;1.80;;
13234;SDS011;6683;48.506;9.050;2023-07-08T14:19:32;1.67;;;1.58;;
13234;SDS011;6683;48.506;9.050;2023-07-08T14:22:36;1.85;;;1.70;;
13234;SDS011;6683;48.506;9.050;2023-07-08T14:25:38;1.90;;;1.80;;
13234;SDS011;6683;48.506;9.050;2023-07-08T14:28:41;1.60;;;1.50;;
13234;SDS011;6683;48.506;9.050;2023-07-08T14:31:45;1.75;;;1.65;;
13234;SDS011;6683;48.506;9.050;2023-07-08T14:34:48;1.80;;;1.70;;
13234;SDS011;6683;48.506;9.050;2023-07-08T14:37:54;1.90;;;1.80;;
13234;SDS011;6683;48.506;9.050;2023-07-08T14:40:57;3.35;;;1.85;;
13234;SDS011;6683;48.506;9.050;2023-07-08T14:43:59;1.90;;;1.50;;
13234;SDS011;6683;48.506;9.050;2023-07-08T14:47:04;1.77;;;1.67;;
13234;SDS011;6683;48.506;9.050;2023-07-08T14:50:11;3.45;;;2.20;;
13234;SDS011;6683;48.506;9.050;2023-07-08T14:53:16;2.15;;;1.95;;
13234;SDS011;6683;48.506;9.050;2023-07-08T14:56:20;2.45;;;1.52;;
13234;SDS011;6683;48.506;9.050;2023-07-08T14:59:23;2.00;;;1.73;;
13234;SDS011;6683;48.506;9.050;2023-07-08T15:02:30;2.05;;;1.73;;
13234;SDS011;6683;48.506;9.050;2023-07-08T15:05:37;1.67;;;1.45;;
13234;SDS011;6683;48.506;9.050;2023-07-08T15:08:39;1.55;;;1.45;;
13234;SDS011;6683;48.506;9.050;2023-07-08T15:11:42;2.17;;;1.98;;
13234;SDS011;6683;48.506;9.050;2023-07-08T15:14:45;1.70;;;1.60;;
13234;SDS011;6683;48.506;9.050;2023-07-08T15:17:49;1.67;;;1.58;;
13234;SDS011;6683;48.506;9.050;2023-07-08T15:20:52;2.10;;;1.90;;
13234;SDS011;6683;48.506;9.050;2023-07-08T15:23:54;1.48;;;1.38;;
13234;SDS011;6683;48.506;9.050;2023-07-08T15:26:56;2.13;;;1.60;;
13234;SDS011;6683;48.506;9.050;2023-07-08T15:29:58;2.15;;;1.73;;
13234;SDS011;6683;48.506;9.050;2023-07-08T15:33:02;1.98;;;1.88;;
13234;SDS011;6683;48.506;9.050;2023-07-08T15:36:06;1.90;;;1.80;;
13234;SDS011;6683;48.506;9.050;2023-07-08T15:39:10;1.85;;;1.75;;
13234;SDS011;6683;48.506;9.050;2023-07-08T15:42:13;1.90;;;1.60;;
13234;SDS011;6683;48.506;9.050;2023-07-08T15:45:17;1.70;;;1.60;;
13234;SDS011;6683;48.506;9.050;2023-07-08T15:48:25;1.60;;;1.50;;
13234;SDS011;6683;48.506;9.050;2023-07-08T15:51:27;1.70;;;1.60;;
13234;SDS011;6683;48.506;9.050;2023-07-08T15:54:29;2.42;;;1.80;;
13234;SDS011;6683;48.506;9.050;2023-07-08T15:57:32;2.08;;;1.90;;
13234;SDS011;6683;48.506;9.050;2023-07-08T16:00:44;2.00;;;1.67;;
13234;SDS011;6683;48.506;9.050;2023-07-08T16:03:49;1.52;;;1.42;;
13234;SDS011;6683;48.506;9.050;2023-07-08T16:06:51;1.80;;;1.70;;
13234;SDS011;6683;48.506;9.050;2023-07-08T16:09:53;1.60;;;1.50;;
13234;SDS011;6683;48.506;9.050;2023-07-08T16:12:55;1.60;;;1.50;;
13234;SDS011;6683;48.506;9.050;2023-07-08T16:15:59;1.60;;;1.50;;
13234;SDS011;6683;48.506;9.050;2023-07-08T16:19:04;1.50;;;1.40;;
13234;SDS011;6683;48.506;9.050;2023-07-08T16:22:06;1.50;;;1.40;;
13234;SDS011;6683;48.506;9.050;2023-07-08T16:25:11;1.60;;;1.50;;
13234;SDS011;6683;48.506;9.050;2023-07-08T16:28:16;1.85;;;1.75;;
13234;SDS011;6683;48.506;9.050;2023-07-08T16:31:27;1.60;;;1.50;;
13234;SDS011;6683;48.506;9.050;2023-07-08T16:34:32;1.90;;;1.70;;
13234;SDS011;6683;48.506;9.050;2023-07-08T16:37:34;1.65;;;1.55;;
13234;SDS011;6683;48.506;9.050;2023-07-08T16:40:36;1.80;;;1.70;;
13234;SDS011;6683;48.506;9.050;2023-07-08T16:43:39;2.00;;;1.77;;
13234;SDS011;6683;48.506;9.050;2023-07-08T16:46:42;2.03;;;1.75;;
13234;SDS011;6683;48.506;9.050;2023-07-08T16:49:45;2.42;;;1.58;;
13234;SDS011;6683;48.506;9.050;2023-07-08T16:52:48;1.80;;;1.70;;
13234;SDS011;6683;48.506;9.050;2023-07-08T16:55:50;1.80;;;1.60;;
13234;SDS011;6683;48.506;9.050;2023-07-08T16:58:52;1.67;;;1.58;;
13234;SDS011;6683;48.506;9.050;2023-07-08T17:01:55;1.73;;;1.63;;
13234;SDS011;6683;48.506;9.050;2023-07-08T17:04:58;1.95;;;1.48;;
13234;SDS011;6683;48.506;9.050;2023-07-08T17:08:00;2.17;;;1.98;;
13234;SDS011;6683;48.506;9.050;2023-07-08T17:11:02;2.03;;;1.52;;
13234;SDS011;6683;48.506;9.050;2023-07-08T17:14:05;2.92;;;1.70;;
13234;SDS011;6683;48.506;9.050;2023-07-08T17:17:09;2.90;;;2.00;;
13234;SDS011;6683;48.506;9.050;2023-07-08T17:20:17;1.65;;;1.42;;
13234;SDS011;6683;48.506;9.050;2023-07-08T17:23:22;1.55;;;1.20;;
13234;SDS011;6683;48.506;9.050;2023-07-08T17:26:24;2.20;;;1.48;;
13234;SDS011;6683;48.506;9.050;2023-07-08T17:29:26;3.28;;;1.60;;
13234;SDS011;6683;48.506;9.050;2023-07-08T17:32:29;1.75;;;1.63;;
13234;SDS011;6683;48.506;9.050;2023-07-08T17:35:32;1.55;;;1.45;;
13234;SDS011;6683;48.506;9.050;2023-07-08T17:38:40;1.67;;;1.30;;
13234;SDS011;6683;48.506;9.050;2023-07-08T17:41:46;3.85;;;1.67;;
13234;SDS011;6683;48.506;9.050;2023-07-08T17:44:51;2.10;;;1.90;;
13234;SDS011;6683;48.506;9.050;2023-07-08T17:47:53;1.60;;;1.50;;
13234;SDS011;6683;48.506;9.050;2023-07-08T17:50:57;2.22;;;1.75;;
13234;SDS011;6683;48.506;9.050;2023-07-08T17:53:59;3.17;;;2.00;;
13234;SDS011;6683;48.506;9.050;2023-07-08T17:57:02;2.05;;;1.80;;
13234;SDS011;6683;48.506;9.050;2023-07-08T18:00:09;2.15;;;1.88;;
13234;SDS011;6683;48.506;9.050;2023-07-08T18:03:15;2.53;;;1.85;;
13234;SDS011;6683;48.506;9.050;2023-07-08T18:06:19;1.80;;;1.67;;
13234;SDS011;6683;48.506;9.050;2023-07-08T18:09:22;1.92;;;1.77;;
13234;SDS011;6683;48.506;9.050;2023-07-08T18:12:24;2.72;;;2.00;;
13234;SDS011;6683;48.506;9.050;2023-07-08T18:15:27;3.10;;;1.90;;
13234;SDS011;6683;48.506;9.050;2023-07-08T18:18:35;2.90;;;2.03;;
13234;SDS011;6683;48.506;9.050;2023-07-08T18:21:38;2.47;;;2.17;;
13234;SDS011;6683;48.506;9.050;2023-07-08T18:24:41;4.03;;;3.67;;
13234;SDS011;6683;48.506;9.050;2023-07-08T18:27:44;5.55;;;3.80;;
13234;SDS011;6683;48.506;9.050;2023-07-08T18:30:46;3.72;;;2.95;;
13234;SDS011;6683;48.506;9.050;2023-07-08T18:33:51;2.50;;;2.30;;
13234;SDS011;6683;48.506;9.050;2023-07-08T18:36:54;2.67;;;2.47;;
13234;SDS011;6683;48.506;9.050;2023-07-08T18:39:57;2.08;;;1.92;;
13234;SDS011;6683;48.506;9.050;2023-07-08T18:43:00;2.60;;;2.38;;
13234;SDS011;6683;48.506;9.050;2023-07-08T18:46:07;2.58;;;2.03;;
13234;SDS011;6683;48.506;9.050;2023-07-08T18:49:11;2.33;;;2.10;;
13234;SDS011;6683;48.506;9.050;2023-07-08T18:52:15;3.47;;;2.17;;